Prague, Nebraska
Current Conditions -  °F | °C
As of 6:55 AM on Saturday 01 Nov 2014 (Local Time) from KAHQ Reporting Station
Clear Clear  
Wind Chill: 17°   Ceiling: Unl
Heat Index: 27°   Visibility: 10mi
Dew Point: 20°   Wind: 9mph
Humidity: 75%   Direction: 160°SSE
Pressure: 30.39"   Gusts: NA
Location:  41.31°N, 96.81°W
Report Text: KAHQ 011155Z AUTO 16008KT 10SM CLR M03/M07 A3039 RMK AO2 T10301068 11025 21055
Loading
Personal Weather Stations






























Interactive Weather Map
Tropical Storm Tracking
New forecast layout! Learn more

10-Day Weather Forecast

Advertisements
Track Severe Weather on mobile